createdAt,value
2018-09-01T00:01:08.239Z,100.00
2018-09-01T00:03:40.348Z,100.00
2018-09-01T00:06:12.412Z,100.00
2018-09-01T00:08:44.535Z,100.00
2018-09-01T00:11:16.666Z,100.00
2018-09-01T00:13:48.743Z,100.00
2018-09-01T00:16:20.784Z,100.00
2018-09-01T00:18:52.916Z,100.00
2018-09-01T00:21:25.026Z,100.00
2018-09-01T00:23:57.144Z,100.00
2018-09-01T00:26:29.228Z,100.00
2018-09-01T00:29:01.347Z,100.00
2018-09-01T00:31:33.544Z,100.00
2018-09-01T00:34:05.858Z,100.00
2018-09-01T00:36:38.013Z,100.00
2018-09-01T00:39:10.121Z,100.00
2018-09-01T00:41:42.244Z,100.00
2018-09-01T00:44:14.348Z,100.00
2018-09-01T00:46:46.517Z,99.73
2018-09-01T00:49:18.660Z,100.00
2018-09-01T00:51:50.719Z,99.33
2018-09-01T00:54:22.867Z,98.99
2018-09-01T00:56:54.956Z,97.80
2018-09-01T00:59:27.075Z,98.86
2018-09-01T01:01:59.321Z,98.88
2018-09-01T01:04:31.451Z,98.76
2018-09-01T01:07:03.551Z,99.99
2018-09-01T01:09:36.743Z,97.44
2018-09-01T01:12:08.880Z,95.78
2018-09-01T01:14:40.990Z,97.33
2018-09-01T01:17:13.167Z,97.15
2018-09-01T01:19:45.309Z,97.50
2018-09-01T01:22:17.481Z,95.94
2018-09-01T01:24:49.622Z,95.72
2018-09-01T01:27:21.743Z,96.44
2018-09-01T01:29:53.846Z,96.00
2018-09-01T01:32:25.903Z,96.87
2018-09-01T01:35:00.959Z,96.25
2018-09-01T01:37:34.597Z,97.98
2018-09-01T01:40:06.750Z,98.21
2018-09-01T01:42:38.903Z,96.55
2018-09-01T01:45:11.091Z,94.19
2018-09-01T01:47:43.165Z,93.34
2018-09-01T01:50:15.240Z,94.01
2018-09-01T01:52:47.377Z,93.43
2018-09-01T01:55:19.470Z,93.41
2018-09-01T01:57:51.772Z,93.59
2018-09-01T02:00:23.894Z,94.65
2018-09-01T02:02:57.091Z,93.59
2018-09-01T02:05:32.025Z,94.45
2018-09-01T02:08:04.520Z,95.92
2018-09-01T02:10:36.671Z,94.42
2018-09-01T02:13:08.817Z,94.03
2018-09-01T02:15:42.115Z,93.83
2018-09-01T02:18:14.117Z,94.52
2018-09-01T02:20:46.228Z,95.66
2018-09-01T02:23:18.309Z,95.92
2018-09-01T02:25:50.407Z,96.53
2018-09-01T02:28:22.496Z,95.72
2018-09-01T02:30:55.612Z,96.13
2018-09-01T02:33:27.680Z,96.03
2018-09-01T02:35:59.755Z,95.72
2018-09-01T02:38:31.892Z,95.96
2018-09-01T02:41:04.199Z,94.32
2018-09-01T02:43:36.263Z,93.72
2018-09-01T02:46:08.369Z,93.55
2018-09-01T02:48:40.457Z,94.23
2018-09-01T02:51:12.543Z,94.65
2018-09-01T02:53:44.589Z,93.55
2018-09-01T02:56:16.721Z,95.30
2018-09-01T02:58:48.779Z,95.54
2018-09-01T03:01:26.459Z,94.95
2018-09-01T03:03:58.497Z,97.07
2018-09-01T03:06:42.056Z,98.52
2018-09-01T03:09:14.409Z,97.61
2018-09-01T03:11:46.466Z,97.61
2018-09-01T03:14:18.562Z,99.41
2018-09-01T03:16:51.218Z,98.72
2018-09-01T03:19:24.225Z,97.25
2018-09-01T03:21:56.274Z,99.20
2018-09-01T03:24:28.410Z,99.91
2018-09-01T03:27:00.516Z,99.22
2018-09-01T03:29:32.568Z,99.50
2018-09-01T03:32:04.892Z,98.18
2018-09-01T03:34:36.987Z,98.07
2018-09-01T03:37:09.077Z,99.16
2018-09-01T03:39:41.163Z,99.51
2018-09-01T03:42:13.286Z,99.68
2018-09-01T03:44:45.355Z,100.00
2018-09-01T03:47:17.481Z,100.00
2018-09-01T03:49:49.630Z,100.00
2018-09-01T03:52:21.763Z,100.00
2018-09-01T03:54:53.826Z,100.00
2018-09-01T03:57:25.902Z,100.00
2018-09-01T03:59:57.995Z,100.00
2018-09-01T04:02:30.135Z,100.00
2018-09-01T04:05:02.228Z,100.00
2018-09-01T04:07:34.349Z,100.00
2018-09-01T04:10:06.456Z,100.00
2018-09-01T04:12:38.552Z,100.00
2018-09-01T04:15:10.618Z,100.00
2018-09-01T04:17:42.688Z,100.00
2018-09-01T04:20:14.838Z,100.00
2018-09-01T04:22:46.983Z,100.00
2018-09-01T04:25:19.063Z,100.00
2018-09-01T04:27:51.167Z,100.00
2018-09-01T04:30:23.235Z,100.00
2018-09-01T04:32:55.315Z,100.00
2018-09-01T04:35:27.882Z,100.00
2018-09-01T04:38:00.989Z,100.00
2018-09-01T04:40:33.061Z,100.00
2018-09-01T04:43:05.220Z,100.00
2018-09-01T04:45:37.376Z,100.00
2018-09-01T04:48:09.854Z,100.00
2018-09-01T04:50:41.912Z,100.00
2018-09-01T04:53:13.987Z,100.00
2018-09-01T04:55:46.017Z,100.00
2018-09-01T04:58:18.113Z,100.00
2018-09-01T05:00:50.243Z,100.00
2018-09-01T05:03:22.289Z,100.00
2018-09-01T05:05:54.394Z,100.00
2018-09-01T05:08:26.502Z,100.00
2018-09-01T05:10:58.508Z,100.00
2018-09-01T05:13:30.677Z,100.00
2018-09-01T05:16:02.779Z,100.00
2018-09-01T05:18:34.890Z,100.00
2018-09-01T05:21:07.004Z,100.00
2018-09-01T05:23:39.645Z,100.00
2018-09-01T05:26:11.752Z,100.00
2018-09-01T05:28:43.955Z,100.00
2018-09-01T05:31:16.059Z,100.00
2018-09-01T05:33:48.344Z,100.00
2018-09-01T05:36:20.422Z,100.00
2018-09-01T05:38:52.479Z,100.00
2018-09-01T05:41:24.523Z,100.00
2018-09-01T05:43:56.626Z,100.00
2018-09-01T05:46:28.681Z,100.00
2018-09-01T05:49:00.748Z,100.00
2018-09-01T05:51:32.813Z,100.00
2018-09-01T05:54:04.939Z,100.00
2018-09-01T05:56:37.113Z,100.00
2018-09-01T05:59:09.163Z,100.00
2018-09-01T06:01:41.239Z,100.00
2018-09-01T06:04:13.305Z,100.00
2018-09-01T06:06:45.411Z,99.20
2018-09-01T06:09:17.496Z,100.00
2018-09-01T06:11:49.548Z,100.00
2018-09-01T06:14:21.569Z,100.00
2018-09-01T06:16:53.635Z,100.00
2018-09-01T06:22:04.480Z,100.00
2018-09-01T06:24:36.564Z,100.00
2018-09-01T06:27:13.949Z,100.00
2018-09-01T06:29:46.123Z,99.84
2018-09-01T06:32:18.669Z,100.00
2018-09-01T06:34:51.381Z,100.00
2018-09-01T06:37:23.495Z,100.00
2018-09-01T06:39:55.635Z,100.00
2018-09-01T06:42:27.752Z,100.00
2018-09-01T06:44:59.868Z,100.00
2018-09-01T06:47:32.093Z,100.00
2018-09-01T06:50:04.360Z,100.00
2018-09-01T06:52:36.549Z,100.00
2018-09-01T06:55:08.628Z,99.93
2018-09-01T06:57:40.796Z,100.00
2018-09-01T07:00:12.962Z,100.00
2018-09-01T07:02:45.290Z,99.79
2018-09-01T07:05:18.468Z,99.62
2018-09-01T07:07:50.579Z,99.54
2018-09-01T07:10:22.696Z,100.00
2018-09-01T07:12:54.778Z,99.72
2018-09-01T07:15:26.938Z,99.06
2018-09-01T07:17:59.022Z,99.74
2018-09-01T07:20:31.152Z,100.00
2018-09-01T07:23:03.216Z,99.56
2018-09-01T07:25:35.342Z,100.00
2018-09-01T07:28:07.821Z,99.00
2018-09-01T07:30:40.102Z,99.01
2018-09-01T07:33:12.006Z,100.00
2018-09-01T07:35:44.074Z,99.38
2018-09-01T07:38:16.152Z,100.00
2018-09-01T07:40:48.207Z,100.00
2018-09-01T07:43:20.331Z,98.86
2018-09-01T07:45:52.580Z,97.60
2018-09-01T07:48:24.717Z,98.80
2018-09-01T07:50:56.799Z,98.40
2018-09-01T07:53:28.843Z,98.12
2018-09-01T07:56:01.027Z,98.95
2018-09-01T07:58:33.048Z,100.00
2018-09-01T08:01:06.201Z,100.00
2018-09-01T08:03:38.230Z,99.26
2018-09-01T08:06:10.493Z,100.00
2018-09-01T08:08:42.583Z,100.00
2018-09-01T08:11:14.640Z,100.00
2018-09-01T08:13:46.846Z,100.00
2018-09-01T08:16:18.879Z,99.61
2018-09-01T08:18:50.944Z,99.72
2018-09-01T08:21:22.991Z,99.64
2018-09-01T08:23:55.165Z,100.00
2018-09-01T08:26:27.277Z,99.59
2018-09-01T08:28:59.503Z,100.00
2018-09-01T08:31:31.575Z,100.00
2018-09-01T08:34:03.679Z,99.05
2018-09-01T08:36:35.787Z,99.47
2018-09-01T08:39:08.612Z,100.00
2018-09-01T08:41:40.781Z,99.46
2018-09-01T08:44:12.883Z,100.00
2018-09-01T08:46:45.104Z,99.15
2018-09-01T08:49:17.363Z,99.93
2018-09-01T08:51:49.515Z,100.00
2018-09-01T08:54:21.683Z,99.10
2018-09-01T08:56:53.787Z,98.47
2018-09-01T08:59:25.877Z,99.11
2018-09-01T09:01:57.983Z,99.69
2018-09-01T09:04:30.091Z,99.85
2018-09-01T09:07:02.250Z,100.00
2018-09-01T09:09:34.431Z,100.00
2018-09-01T09:12:07.635Z,100.00
2018-09-01T09:14:39.785Z,100.00
2018-09-01T09:17:11.948Z,100.00
2018-09-01T09:19:44.081Z,100.00
2018-09-01T09:22:16.139Z,100.00
2018-09-01T09:24:48.278Z,100.00
2018-09-01T09:27:20.452Z,100.00
2018-09-01T09:29:52.539Z,100.00
2018-09-01T09:32:24.663Z,99.87
2018-09-01T09:34:56.825Z,99.25
2018-09-01T09:37:29.121Z,99.18
2018-09-01T09:40:01.503Z,98.58
2018-09-01T09:42:34.689Z,99.01
2018-09-01T09:45:06.824Z,96.83
2018-09-01T09:47:38.945Z,98.09
2018-09-01T09:50:11.134Z,97.79
2018-09-01T09:52:43.252Z,98.43
2018-09-01T09:55:16.125Z,96.89
2018-09-01T09:57:48.216Z,97.17
2018-09-01T10:00:24.901Z,96.32
2018-09-01T10:02:56.990Z,95.44
2018-09-01T10:05:29.199Z,94.96
2018-09-01T10:08:01.260Z,95.64
2018-09-01T10:10:33.377Z,93.91
2018-09-01T10:13:06.493Z,95.61
2018-09-01T10:15:38.546Z,93.36
2018-09-01T10:18:10.690Z,93.71
2018-09-01T10:20:42.815Z,93.87
2018-09-01T10:23:14.885Z,93.45
2018-09-01T10:25:46.952Z,92.89
2018-09-01T10:28:19.053Z,91.42
2018-09-01T10:30:51.166Z,91.31
2018-09-01T10:33:23.231Z,92.97
2018-09-01T10:35:55.464Z,92.01
2018-09-01T10:38:27.608Z,89.28
2018-09-01T10:40:59.739Z,90.51
2018-09-01T10:43:31.816Z,90.05
2018-09-01T10:46:05.608Z,89.74
2018-09-01T10:48:37.684Z,91.33
2018-09-01T10:51:09.772Z,89.96
2018-09-01T10:53:41.969Z,90.64
2018-09-01T10:56:14.048Z,88.07
2018-09-01T10:58:46.202Z,87.75
2018-09-01T11:01:18.281Z,87.91
2018-09-01T11:03:50.325Z,88.21
2018-09-01T11:06:22.475Z,86.29
2018-09-01T11:08:54.518Z,88.33
2018-09-01T11:11:26.659Z,87.06
2018-09-01T11:13:58.777Z,87.00
2018-09-01T11:16:31.939Z,88.24
2018-09-01T11:19:04.046Z,87.18
2018-09-01T11:21:36.218Z,87.97
2018-09-01T11:24:09.366Z,87.25
2018-09-01T11:26:41.491Z,87.14
2018-09-01T11:29:13.597Z,87.38
2018-09-01T11:31:45.660Z,86.05
2018-09-01T11:34:17.784Z,85.80
2018-09-01T11:36:49.928Z,85.62
2018-09-01T11:39:21.879Z,86.58
2018-09-01T11:41:53.950Z,86.41
2018-09-01T11:44:25.983Z,86.48
2018-09-01T11:46:58.117Z,85.45
2018-09-01T11:49:30.229Z,87.76
2018-09-01T11:52:02.352Z,86.31
2018-09-01T11:54:34.449Z,87.27
2018-09-01T11:57:06.555Z,86.96
2018-09-01T11:59:38.727Z,86.10
2018-09-01T12:02:10.798Z,86.49
2018-09-01T12:04:42.882Z,85.95
2018-09-01T12:07:18.302Z,87.15
2018-09-01T12:09:52.423Z,87.07
2018-09-01T12:12:24.462Z,87.08
2018-09-01T12:14:56.584Z,87.68
2018-09-01T12:17:28.719Z,87.09
2018-09-01T12:20:00.800Z,87.63
2018-09-01T12:22:32.880Z,87.25
2018-09-01T12:25:05.979Z,86.32
2018-09-01T12:27:38.063Z,86.57
2018-09-01T12:30:10.100Z,86.80
2018-09-01T12:32:42.155Z,86.91
2018-09-01T12:35:14.280Z,86.45
2018-09-01T12:37:46.284Z,87.82
2018-09-01T12:40:19.364Z,87.27
2018-09-01T12:42:51.412Z,86.13
2018-09-01T12:45:23.484Z,86.14
2018-09-01T12:47:55.543Z,87.12
2018-09-01T12:50:27.601Z,86.59
2018-09-01T12:52:59.792Z,86.85
2018-09-01T12:55:31.726Z,87.14
2018-09-01T12:58:03.805Z,86.31
2018-09-01T13:00:36.021Z,86.99
2018-09-01T13:03:08.122Z,86.46
2018-09-01T13:05:40.180Z,85.78
2018-09-01T13:08:12.223Z,87.34
2018-09-01T13:10:44.274Z,86.65
2018-09-01T13:13:16.327Z,85.90
2018-09-01T13:15:48.390Z,87.46
2018-09-01T13:18:20.470Z,87.12
2018-09-01T13:20:53.591Z,85.93
2018-09-01T13:23:25.919Z,85.92
2018-09-01T13:25:58.008Z,86.14
2018-09-01T13:28:30.114Z,85.35
2018-09-01T13:31:02.162Z,85.51
2018-09-01T13:33:34.327Z,85.22
2018-09-01T13:36:06.380Z,84.25
2018-09-01T13:38:38.536Z,85.06
2018-09-01T13:41:10.595Z,84.40
2018-09-01T13:43:42.678Z,84.40
2018-09-01T13:46:14.796Z,83.83
2018-09-01T13:48:46.917Z,84.49
2018-09-01T13:51:18.980Z,84.78
2018-09-01T13:53:51.103Z,84.29
2018-09-01T13:56:23.172Z,83.54
2018-09-01T13:58:55.331Z,82.63
2018-09-01T14:01:27.387Z,82.02
2018-09-01T14:03:59.488Z,81.62
2018-09-01T14:06:31.512Z,79.85
2018-09-01T14:09:04.503Z,81.76
2018-09-01T14:11:36.590Z,82.91
2018-09-01T14:14:08.651Z,81.88
2018-09-01T14:16:40.779Z,82.34
2018-09-01T14:19:12.888Z,81.69
2018-09-01T14:21:45.011Z,82.20
2018-09-01T14:24:17.192Z,81.93
2018-09-01T14:26:51.336Z,81.00
2018-09-01T14:29:23.420Z,81.12
2018-09-01T14:31:56.500Z,80.05
2018-09-01T14:34:28.451Z,81.75
2018-09-01T14:37:01.654Z,81.08
2018-09-01T14:39:33.709Z,81.16
2018-09-01T14:42:05.713Z,80.46
2018-09-01T14:44:37.689Z,80.84
2018-09-01T14:47:09.695Z,81.15
2018-09-01T14:49:41.667Z,81.21
2018-09-01T14:52:13.637Z,81.95
2018-09-01T14:54:45.839Z,80.86
2018-09-01T14:57:17.805Z,82.21
2018-09-01T14:59:50.111Z,82.63
2018-09-01T15:02:22.116Z,81.58
2018-09-01T15:04:54.111Z,82.72
2018-09-01T15:07:26.075Z,81.45
2018-09-01T15:09:58.083Z,82.00
2018-09-01T15:12:30.095Z,82.66
2018-09-01T15:15:02.079Z,82.02
2018-09-01T15:17:39.788Z,82.57
2018-09-01T15:20:11.795Z,82.50
2018-09-01T15:22:43.751Z,83.24
2018-09-01T15:25:15.791Z,82.37
2018-09-01T15:27:47.747Z,82.57
2018-09-01T15:30:19.787Z,82.70
2018-09-01T15:32:51.787Z,82.36
2018-09-01T15:35:23.795Z,82.40
2018-09-01T15:37:55.792Z,83.12
2018-09-01T15:40:27.847Z,82.38
2018-09-01T15:42:59.915Z,81.90
2018-09-01T15:45:36.246Z,82.68
2018-09-01T15:48:15.704Z,84.03
2018-09-01T15:50:47.772Z,85.55
2018-09-01T15:53:19.763Z,87.17
2018-09-01T15:55:51.808Z,88.57
2018-09-01T15:58:23.795Z,90.94
2018-09-01T16:03:34.616Z,94.01
2018-09-01T16:06:06.660Z,95.44
2018-09-01T16:08:38.630Z,95.56
2018-09-01T16:11:10.653Z,97.20
2018-09-01T16:13:42.647Z,98.85
2018-09-01T16:16:14.632Z,99.48
2018-09-01T16:18:47.616Z,100.00
2018-09-01T16:21:19.809Z,100.00
2018-09-01T16:23:51.827Z,100.00
2018-09-01T16:26:23.890Z,100.00
2018-09-01T16:28:55.883Z,100.00
2018-09-01T16:31:28.900Z,100.00
2018-09-01T16:34:00.912Z,100.00
2018-09-01T16:36:33.941Z,100.00
2018-09-01T16:39:05.970Z,100.00
2018-09-01T16:41:38.028Z,100.00
2018-09-01T16:44:11.017Z,100.00
2018-09-01T16:46:43.038Z,100.00
2018-09-01T16:49:15.042Z,100.00
2018-09-01T16:51:48.043Z,100.00
2018-09-01T16:54:20.103Z,100.00
2018-09-01T16:56:52.074Z,100.00
2018-09-01T16:59:24.074Z,100.00
2018-09-01T17:01:56.099Z,100.00
2018-09-01T17:04:28.075Z,100.00
2018-09-01T17:07:00.124Z,100.00
2018-09-01T17:09:32.230Z,100.00
2018-09-01T17:12:04.142Z,100.00
2018-09-01T17:14:36.133Z,100.00
2018-09-01T17:17:08.144Z,100.00
2018-09-01T17:19:40.114Z,100.00
2018-09-01T17:22:13.130Z,100.00
2018-09-01T17:24:45.119Z,100.00
2018-09-01T17:27:17.126Z,100.00
2018-09-01T17:29:50.126Z,100.00
2018-09-01T17:32:22.101Z,100.00
2018-09-01T17:34:55.176Z,100.00
2018-09-01T17:37:27.154Z,100.00
2018-09-01T17:39:59.117Z,100.00
2018-09-01T17:42:34.687Z,100.00
2018-09-01T17:45:07.349Z,100.00
2018-09-01T17:47:39.367Z,100.00
2018-09-01T17:50:11.331Z,100.00
2018-09-01T17:52:43.347Z,100.00
2018-09-01T17:55:15.375Z,100.00
2018-09-01T17:57:47.391Z,100.00
2018-09-01T18:00:19.398Z,100.00
2018-09-01T18:02:51.436Z,100.00
2018-09-01T18:05:23.502Z,100.00
2018-09-01T18:07:56.015Z,100.00
2018-09-01T18:10:28.007Z,100.00
2018-09-01T18:13:00.142Z,100.00
2018-09-01T18:15:33.143Z,100.00
2018-09-01T18:18:05.471Z,100.00
2018-09-01T18:20:37.628Z,100.00
2018-09-01T18:23:09.841Z,100.00
2018-09-01T18:25:41.774Z,100.00
2018-09-01T18:28:14.792Z,100.00
2018-09-01T18:30:47.674Z,100.00
2018-09-01T18:33:19.768Z,100.00
2018-09-01T18:35:51.985Z,100.00
2018-09-01T18:38:23.931Z,100.00
2018-09-01T18:40:55.898Z,100.00
2018-09-01T18:43:27.956Z,100.00
2018-09-01T18:45:59.938Z,100.00
2018-09-01T18:48:32.022Z,100.00
2018-09-01T18:51:04.106Z,100.00
2018-09-01T18:53:36.189Z,100.00
2018-09-01T18:56:08.232Z,100.00
2018-09-01T18:58:40.211Z,100.00
2018-09-01T19:01:12.190Z,100.00
2018-09-01T19:03:44.146Z,100.00
2018-09-01T19:06:16.102Z,100.00
2018-09-01T19:08:48.135Z,100.00
2018-09-01T19:11:20.099Z,100.00
2018-09-01T19:13:52.224Z,100.00
2018-09-01T19:16:24.159Z,100.00
2018-09-01T19:18:56.131Z,100.00
2018-09-01T19:21:28.151Z,100.00
2018-09-01T19:24:00.262Z,100.00
2018-09-01T19:26:32.247Z,100.00
2018-09-01T19:29:04.265Z,100.00
2018-09-01T19:31:36.326Z,100.00
2018-09-01T19:34:08.531Z,100.00
2018-09-01T19:36:40.523Z,100.00
2018-09-01T19:39:12.571Z,100.00
2018-09-01T19:41:44.574Z,100.00
2018-09-01T19:44:16.645Z,100.00
2018-09-01T19:46:48.648Z,100.00
2018-09-01T19:49:20.640Z,100.00
2018-09-01T19:51:53.228Z,100.00
2018-09-01T19:54:25.250Z,100.00
2018-09-01T19:56:57.270Z,100.00
2018-09-01T19:59:29.258Z,100.00
2018-09-01T20:02:01.575Z,100.00
2018-09-01T20:04:33.645Z,100.00
2018-09-01T20:07:09.247Z,100.00
2018-09-01T20:09:41.260Z,100.00
2018-09-01T20:12:13.284Z,100.00
2018-09-01T20:14:45.319Z,100.00
2018-09-01T20:17:17.455Z,100.00
2018-09-01T20:19:49.473Z,100.00
2018-09-01T20:22:21.519Z,100.00
2018-09-01T20:24:53.520Z,100.00
2018-09-01T20:27:25.571Z,100.00
2018-09-01T20:29:57.635Z,100.00
2018-09-01T20:32:29.691Z,100.00
2018-09-01T20:36:11.325Z,100.00
2018-09-01T20:38:43.293Z,100.00
2018-09-01T20:41:15.451Z,100.00
2018-09-01T20:43:47.422Z,100.00
2018-09-01T20:46:19.454Z,100.00
2018-09-01T20:48:51.469Z,100.00
2018-09-01T20:51:23.489Z,100.00
2018-09-01T20:53:55.497Z,100.00
2018-09-01T20:56:27.546Z,100.00
2018-09-01T20:58:59.589Z,100.00
2018-09-01T21:01:31.554Z,100.00
2018-09-01T21:04:03.632Z,100.00
2018-09-01T21:06:35.684Z,100.00
2018-09-01T21:09:08.586Z,100.00
2018-09-01T21:11:41.188Z,100.00
2018-09-01T21:14:13.166Z,100.00
2018-09-01T21:16:45.193Z,100.00
2018-09-01T21:19:17.122Z,100.00
2018-09-01T21:21:49.132Z,100.00
2018-09-01T21:24:21.084Z,100.00
2018-09-01T21:26:53.127Z,100.00
2018-09-01T21:29:25.117Z,100.00
2018-09-01T21:31:57.088Z,100.00
2018-09-01T21:34:29.085Z,100.00
2018-09-01T21:37:01.126Z,100.00
2018-09-01T21:39:33.151Z,100.00
2018-09-01T21:42:05.163Z,100.00
2018-09-01T21:44:43.786Z,100.00
2018-09-01T21:47:15.890Z,100.00
2018-09-01T21:49:47.990Z,100.00
2018-09-01T21:52:19.958Z,100.00
2018-09-01T21:54:51.934Z,100.00
2018-09-01T21:57:23.899Z,100.00
2018-09-01T21:59:55.970Z,100.00
2018-09-01T22:02:27.938Z,100.00
2018-09-01T22:05:05.710Z,100.00
2018-09-01T22:07:37.672Z,100.00
2018-09-01T22:10:09.791Z,100.00
2018-09-01T22:12:41.699Z,100.00
2018-09-01T22:15:13.781Z,100.00
2018-09-01T22:17:45.895Z,100.00
2018-09-01T22:20:17.932Z,100.00
2018-09-01T22:22:49.907Z,100.00
2018-09-01T22:25:21.852Z,100.00
2018-09-01T22:27:53.806Z,100.00
2018-09-01T22:30:25.852Z,100.00
2018-09-01T22:32:57.814Z,100.00
2018-09-01T22:35:29.842Z,100.00
2018-09-01T22:38:01.848Z,100.00
2018-09-01T22:40:33.866Z,100.00
2018-09-01T22:43:05.928Z,100.00
2018-09-01T22:45:37.886Z,100.00
2018-09-01T22:48:09.887Z,100.00
2018-09-01T22:50:41.858Z,100.00
2018-09-01T22:53:13.817Z,100.00
2018-09-01T22:55:45.795Z,100.00
2018-09-01T22:58:17.729Z,100.00
2018-09-01T23:00:49.694Z,100.00
2018-09-01T23:03:21.663Z,100.00
2018-09-01T23:05:53.671Z,100.00
2018-09-01T23:08:25.617Z,100.00
2018-09-01T23:10:57.611Z,100.00
2018-09-01T23:13:29.558Z,100.00
2018-09-01T23:16:01.611Z,100.00
2018-09-01T23:18:33.558Z,100.00
2018-09-01T23:21:05.525Z,100.00
2018-09-01T23:23:37.493Z,100.00
2018-09-01T23:26:09.448Z,100.00
2018-09-01T23:28:41.378Z,100.00
2018-09-01T23:31:13.327Z,100.00
2018-09-01T23:33:45.267Z,100.00
2018-09-01T23:36:17.588Z,100.00
2018-09-01T23:38:49.547Z,100.00
2018-09-01T23:41:21.519Z,100.00
2018-09-01T23:43:53.477Z,100.00
2018-09-01T23:46:25.462Z,100.00
2018-09-01T23:48:57.410Z,100.00
2018-09-01T23:51:29.390Z,100.00
2018-09-01T23:54:01.368Z,100.00
2018-09-01T23:56:33.402Z,100.00
2018-09-01T23:59:05.356Z,100.00
